This is the latest recevied weather packets stored in our database for station/object 9W2CEW-1. If no packets are shown the sender has not sent any weather packets the latest 10 day(s).
| Time | Temp. | Humidity | Pressure | Rain* | Wind** | Luminosity | Snow |
|---|---|---|---|---|---|---|---|
| 1777672150 | 30.56° C | 72% | 1002.6 hPa | - | - | - | - |
| 1777671243 | 30.56° C | 71% | 1002.5 hPa | - | - | - | - |
| 1777670343 | 31.67° C | 67% | 1002.4 hPa | - | - | - | - |
| 1777669679 | 31.11° C | 69% | 1002.5 hPa | - | - | - | - |
| 1777669443 | 31.11° C | 69% | 1002.5 hPa | - | - | - | - |
| 1777668542 | 31.11° C | 68% | 1002.5 hPa | - | - | - | - |
| 1777667642 | 31.11° C | 66% | 1002.5 hPa | - | - | - | - |
| 1777666743 | 30.56° C | 71% | 1002.5 hPa | - | - | - | - |
| 1777665984 | 31.11° C | 69% | 1002.8 hPa | - | - | - | - |
| 1777665844 | 31.11° C | 69% | 1002.8 hPa | - | - | - | - |
| 1777665064 | 31.11° C | 68% | 1003 hPa | - | - | - | - |
| 1777664945 | 31.11° C | 68% | 1003 hPa | - | - | - | - |
| 1777664044 | 30.56° C | 70% | 1003.1 hPa | - | - | - | - |
| 1777663144 | 30.56° C | 70% | 1003.3 hPa | - | - | - | - |
| 1777662301 | 30.56° C | 71% | 1003.4 hPa | - | - | - | - |
| 1777662244 | 30.56° C | 71% | 1003.4 hPa | - | - | - | - |
| 1777661377 | 30° C | 72% | 1003.5 hPa | - | - | - | - |
| 1777661345 | 30° C | 72% | 1003.5 hPa | - | - | - | - |
| 1777660506 | 30° C | 73% | 1003.7 hPa | - | - | - | - |
| 1777660443 | 30° C | 73% | 1003.7 hPa | - | - | - | - |
| 1777659621 | 30° C | 75% | 1003.9 hPa | - | - | - | - |
| 1777659543 | 30° C | 75% | 1003.9 hPa | - | - | - | - |
| 1777658890 | 30° C | 72% | 1004.1 hPa | - | - | - | - |
| 1777658643 | 30° C | 72% | 1004.1 hPa | - | - | - | - |
| 1777657790 | 31.67° C | 69% | 1004 hPa | - | - | - | - |
* Rain since midnight (hover to see other rain measurements)
** Current wind speed in m/s (hover to see current wind gust speed)